Time;durP1;ratioP1;P1;durP2;ratioP2;P2;SDS_P1;SDS_P2;PMS_P1;PMS_P2;Temp;Humidity;BMP_temperature;BMP_pressure;BME280_temperature;BME280_humidity;BME280_pressure;Samples;Min_cycle;Max_cycle;Signal;HPM_P1;HPM_P2
2022/03/24 04:47:57;;;;;;;;;35.00;30.50;;;;;17.41;45.25;102424.78;5056573;27;45586;-75
2022/03/24 04:50:22;;;;;;;;;29.25;27.00;;;;;17.58;45.38;102431.88;5035581;28;45423;-75
2022/03/24 04:52:48;;;;;;;;;29.00;29.00;;;;;17.81;45.36;102427.00;5046345;28;45490;-74
2022/03/24 04:55:14;;;;;;;;;29.50;29.00;;;;;18.07;45.42;102424.66;5037574;28;45344;-76
2022/03/24 04:57:39;;;;;;;;;31.25;31.25;;;;;18.29;45.12;102416.19;5043429;28;46087;-74
2022/03/24 05:00:06;;;;;;;;;32.50;30.00;;;;;18.61;44.73;102423.22;5030342;28;45619;-76
2022/03/24 05:02:32;;;;;;;;;29.25;28.00;;;;;18.86;44.55;102419.00;5034909;28;45436;-74
2022/03/24 05:04:57;;;;;;;;;30.25;28.75;;;;;19.08;44.41;102413.16;5048829;28;45401;-74
2022/03/24 05:07:23;;;;;;;;;30.25;28.75;;;;;19.37;43.93;102417.59;5044255;27;45476;-74
2022/03/24 05:09:50;;;;;;;;;28.25;26.50;;;;;19.59;43.67;102422.44;5038367;28;45346;-76
2022/03/24 05:12:16;;;;;;;;;30.50;27.75;;;;;19.84;43.72;102419.97;5040964;27;48652;-77
2022/03/24 05:14:42;;;;;;;;;31.00;27.25;;;;;20.04;43.39;102418.66;5027080;28;45588;-76
2022/03/24 05:17:07;;;;;;;;;28.00;24.50;;;;;20.19;43.39;102415.88;5045602;28;45489;-78
2022/03/24 05:19:34;;;;;;;;;29.50;28.25;;;;;20.40;42.51;102411.69;5038033;28;45481;-76
2022/03/24 05:22:00;;;;;;;;;26.50;25.75;;;;;20.54;42.43;102405.34;5032286;28;45519;-76
2022/03/24 05:24:25;;;;;;;;;29.50;26.25;;;;;20.77;42.82;102424.41;5051336;28;50386;-74
2022/03/24 05:26:51;;;;;;;;;32.75;27.50;;;;;20.92;42.49;102421.59;5046100;27;46312;-76
2022/03/24 05:29:17;;;;;;;;;27.75;25.75;;;;;21.05;42.24;102422.47;5049249;28;45742;-77
2022/03/24 05:31:42;;;;;;;;;27.75;25.75;;;;;21.16;41.86;102413.59;5047150;28;45575;-77
2022/03/24 05:34:07;;;;;;;;;28.25;25.50;;;;;21.32;42.17;102415.16;5040312;28;45317;-77
2022/03/24 05:36:32;;;;;;;;;25.50;22.50;;;;;21.46;41.66;102424.94;5028068;28;59549;-77
2022/03/24 05:38:58;;;;;;;;;25.00;24.00;;;;;21.59;42.17;102417.63;5046948;28;45574;-78
2022/03/24 05:41:24;;;;;;;;;28.50;26.75;;;;;21.74;41.58;102430.16;5040194;28;47406;-80
2022/03/24 05:44:06;;;;;;;;;26.25;26.25;;;;;21.88;41.57;102421.88;5040715;28;45349;-79
2022/03/24 05:46:38;;;;;;;;;27.75;26.00;;;;;22.04;40.99;102435.06;5045021;28;45979;-79
2022/03/24 05:49:08;;;;;;;;;27.50;26.50;;;;;22.19;41.40;102437.59;5040938;28;46514;-81
2022/03/24 05:51:34;;;;;;;;;24.75;23.25;;;;;22.29;40.79;102427.78;5046910;28;45507;-81
2022/03/24 05:53:59;;;;;;;;;25.50;22.50;;;;;22.35;40.79;102427.28;5037247;28;45436;-83
2022/03/24 05:56:25;;;;;;;;;24.50;22.50;;;;;22.48;41.06;102431.75;5043945;28;45403;-81
2022/03/24 05:58:51;;;;;;;;;27.50;22.50;;;;;22.57;40.79;102432.88;5033799;28;45819;-81
2022/03/24 06:01:17;;;;;;;;;24.75;23.00;;;;;22.62;40.64;102434.25;5033186;28;45496;-80
2022/03/24 06:03:44;;;;;;;;;22.50;20.25;;;;;22.73;40.39;102419.84;5026940;28;45498;-84
2022/03/24 06:06:10;;;;;;;;;24.00;24.00;;;;;22.74;40.31;102423.41;5025676;27;45914;-80
2022/03/24 06:08:36;;;;;;;;;26.25;24.25;;;;;22.88;40.09;102430.44;5034562;28;46431;-77
2022/03/24 06:11:02;;;;;;;;;24.00;21.25;;;;;22.91;39.95;102430.19;5030331;28;45760;-77
2022/03/24 06:13:27;;;;;;;;;29.50;27.00;;;;;23.02;40.07;102430.16;5032951;28;45307;-79
2022/03/24 06:15:54;;;;;;;;;20.50;20.50;;;;;23.08;39.61;102431.53;5031023;28;46308;-76
2022/03/24 06:18:20;;;;;;;;;26.50;24.50;;;;;23.09;39.23;102435.13;5033569;28;45471;-77
2022/03/24 06:20:45;;;;;;;;;27.00;26.75;;;;;23.10;39.09;102431.41;5028574;28;46726;-76
2022/03/24 06:23:12;;;;;;;;;22.75;21.25;;;;;23.10;38.79;102434.13;5042240;28;45480;-76
2022/03/24 06:25:37;;;;;;;;;23.75;23.00;;;;;23.08;38.49;102436.06;5031286;28;46113;-76
2022/03/24 06:28:05;;;;;;;;;30.25;27.75;;;;;23.07;38.57;102445.19;5016693;28;45764;-76
2022/03/24 06:30:30;;;;;;;;;19.50;19.50;;;;;23.01;38.29;102422.19;5029241;28;45474;-76
2022/03/24 06:32:56;;;;;;;;;26.50;23.75;;;;;22.97;38.39;102426.97;5027241;28;45561;-76
2022/03/24 06:35:22;;;;;;;;;25.25;23.00;;;;;23.01;38.41;102430.31;5030431;28;45877;-76
2022/03/24 06:37:48;;;;;;;;;26.00;23.25;;;;;23.05;38.25;102436.34;5018201;28;45731;-76
2022/03/24 06:40:14;;;;;;;;;26.25;24.00;;;;;23.06;38.60;102436.22;5029097;28;45497;-76
2022/03/24 06:42:40;;;;;;;;;25.00;25.00;;;;;23.05;38.05;102441.75;5031856;28;45648;-76
2022/03/24 06:45:07;;;;;;;;;27.00;27.00;;;;;23.06;37.92;102440.75;5027467;27;46082;-74
2022/03/24 06:47:33;;;;;;;;;28.25;25.50;;;;;22.97;37.97;102426.97;5036810;28;45394;-74
2022/03/24 06:49:58;;;;;;;;;25.75;22.75;;;;;23.04;37.81;102440.88;5005504;27;45674;-74
2022/03/24 06:52:24;;;;;;;;;26.50;24.50;;;;;23.05;38.24;102439.88;5025247;28;45596;-74
2022/03/24 06:54:49;;;;;;;;;33.50;30.00;;;;;23.07;38.17;102442.47;5029885;27;48402;-76
2022/03/24 06:57:14;;;;;;;;;28.00;24.25;;;;;23.06;37.69;102444.34;5014213;27;45553;-75
2022/03/24 06:59:43;;;;;;;;;25.75;24.50;;;;;23.05;38.35;102449.88;5030408;27;45880;-76
2022/03/24 07:02:09;;;;;;;;;28.75;28.00;;;;;23.03;38.04;102448.16;5029124;28;45509;-79
2022/03/24 07:04:35;;;;;;;;;28.75;26.00;;;;;23.03;38.39;102450.00;5031376;28;45713;-79
2022/03/24 07:07:00;;;;;;;;;25.25;24.75;;;;;22.99;38.68;102441.28;5014292;28;45522;-79
2022/03/24 07:09:26;;;;;;;;;29.25;28.25;;;;;23.08;38.89;102446.91;5029312;28;45452;-79
2022/03/24 07:11:51;;;;;;;;;27.25;25.00;;;;;23.09;38.61;102445.94;5025226;28;47068;-78
2022/03/24 07:14:17;;;;;;;;;26.75;25.25;;;;;23.09;38.40;102446.78;5030770;28;46458;-75
2022/03/24 07:16:42;;;;;;;;;26.75;24.00;;;;;23.14;38.46;102449.13;5078055;27;45519;-79
2022/03/24 07:19:09;;;;;;;;;27.00;26.25;;;;;23.16;38.36;102452.56;5019925;28;45426;-76
2022/03/24 07:21:35;;;;;;;;;24.25;23.75;;;;;23.17;38.72;102452.44;5029583;28;45589;-82
2022/03/24 07:24:00;;;;;;;;;28.75;25.00;;;;;23.20;38.93;102450.47;5029922;27;45537;-78
2022/03/24 07:26:25;;;;;;;;;28.75;24.50;;;;;23.24;38.42;102454.66;5025529;28;45519;-83
2022/03/24 07:28:51;;;;;;;;;27.50;27.00;;;;;23.24;38.65;102452.81;5031125;28;48809;-80
2022/03/24 07:31:19;;;;;;;;;30.25;27.50;;;;;23.27;38.61;102455.28;5028183;28;45721;-81
2022/03/24 07:33:45;;;;;;;;;23.75;23.00;;;;;23.26;39.03;102450.00;5030568;28;45471;-85
2022/03/24 07:36:10;;;;;;;;;27.25;26.00;;;;;23.26;38.76;102444.56;5023772;28;45628;-83
2022/03/24 07:38:36;;;;;;;;;26.50;23.50;;;;;23.35;39.12;102459.22;5037758;28;45642;-82
2022/03/24 07:41:02;;;;;;;;;29.00;27.50;;;;;23.35;38.25;102457.41;5012925;28;45439;-75
2022/03/24 07:43:27;;;;;;;;;29.00;26.00;;;;;23.35;37.79;102459.22;5030533;28;46269;-73
2022/03/24 07:45:53;;;;;;;;;27.50;26.00;;;;;23.35;37.57;102465.53;5040599;28;45423;-74
2022/03/24 07:48:25;;;;;;;;;35.25;31.00;;;;;23.20;37.00;102448.63;5047528;28;45444;-78
2022/03/24 07:50:52;;;;;;;;;31.25;27.75;;;;;23.28;37.78;102465.13;5025408;28;45702;-77
2022/03/24 07:53:36;;;;;;;;;34.75;31.00;;;;;23.30;37.17;102468.56;5024416;28;46153;-83
2022/03/24 07:56:02;;;;;;;;;30.25;28.50;;;;;23.32;37.37;102475.69;5028226;28;45543;-80
2022/03/24 07:58:27;;;;;;;;;33.25;28.50;;;;;23.29;37.46;102472.25;5031984;28;45574;-80
2022/03/24 08:00:53;;;;;;;;;30.50;29.00;;;;;23.35;37.80;102480.91;5029668;28;45564;-81
2022/03/24 08:03:20;;;;;;;;;29.25;27.75;;;;;23.36;38.14;102474.50;5029076;27;45969;-80
2022/03/24 08:05:47;;;;;;;;;30.25;28.75;;;;;23.40;37.84;102476.84;5034918;27;45445;-84
2022/03/24 08:08:14;;;;;;;;;32.00;27.75;;;;;23.40;37.93;102471.41;5030397;28;45549;-81
2022/03/24 08:10:47;;;;;;;;;24.50;24.00;;;;;23.41;38.02;102472.25;5029855;28;45516;-81
2022/03/24 08:13:15;;;;;;;;;24.25;23.75;;;;;23.44;38.30;102477.44;5027559;28;46062;-82
2022/03/24 08:15:41;;;;;;;;;26.50;26.25;;;;;23.50;37.88;102486.94;5030024;28;45407;-83
2022/03/24 08:18:09;;;;;;;;;28.25;24.00;;;;;23.51;37.97;102481.34;5030909;28;45456;-81
2022/03/24 08:20:35;;;;;;;;;26.00;24.50;;;;;23.54;38.09;102486.53;5028953;28;45450;-82
2022/03/24 08:23:01;;;;;;;;;30.25;26.25;;;;;23.56;38.29;102481.00;5026834;28;46099;-79
2022/03/24 08:25:27;;;;;;;;;25.75;23.00;;;;;23.59;38.28;102488.00;5025761;28;45515;-82
2022/03/24 08:27:52;;;;;;;;;30.50;25.25;;;;;23.61;37.86;102480.59;5028375;28;45528;-81
2022/03/24 08:30:18;;;;;;;;;24.50;24.50;;;;;23.63;38.22;102481.34;5035373;28;45770;-82
2022/03/24 08:32:43;;;;;;;;;30.50;23.25;;;;;23.63;38.18;102484.91;5030089;28;45874;-85
2022/03/24 08:35:09;;;;;;;;;23.75;23.25;;;;;23.63;38.21;102478.63;5031831;28;45493;-89
2022/03/24 08:37:35;;;;;;;;;31.25;23.75;;;;;23.68;37.96;102490.84;5029300;28;45549;-93
2022/03/24 08:40:01;;;;;;;;;26.75;25.75;;;;;23.59;38.09;102469.91;5033979;27;45603;-90
2022/03/24 08:42:27;;;;;;;;;21.00;21.00;;;;;23.74;38.26;102492.16;5027713;28;46849;-84
2022/03/24 08:44:52;;;;;;;;;18.00;16.75;;;;;23.77;38.26;102489.19;5030261;28;46366;-85
2022/03/24 08:47:17;;;;;;;;;24.25;23.00;;;;;23.75;38.43;102480.31;5025689;28;53966;-88
2022/03/24 08:49:43;;;;;;;;;27.50;23.50;;;;;23.77;38.51;102488.31;5015071;28;45636;-83
2022/03/24 08:52:09;;;;;;;;;23.50;23.50;;;;;23.75;38.22;102483.03;5024310;28;45511;-82
2022/03/24 08:54:34;;;;;;;;;24.75;22.75;;;;;23.83;38.57;102493.25;5028336;28;45515;-85
2022/03/24 08:57:00;;;;;;;;;24.00;23.00;;;;;23.85;38.58;102493.09;5029595;28;45429;-85
2022/03/24 08:59:25;;;;;;;;;28.50;25.25;;;;;23.82;38.81;102497.81;5030581;27;45476;-85
2022/03/24 09:01:50;;;;;;;;;22.75;22.50;;;;;23.87;38.57;102488.44;5030008;28;45407;-87
2022/03/24 09:04:17;;;;;;;;;21.75;20.75;;;;;23.87;38.46;102486.56;5029179;28;45483;-76
2022/03/24 09:06:42;;;;;;;;;24.00;24.00;;;;;23.89;38.32;102494.56;5030812;28;45646;-87
2022/03/24 09:09:07;;;;;;;;;23.75;23.75;;;;;23.87;37.59;102491.13;5026086;28;56586;-88
2022/03/24 09:11:33;;;;;;;;;21.25;21.25;;;;;23.87;38.03;102489.28;5028297;27;45510;-84
2022/03/24 09:13:58;;;;;;;;;22.00;22.00;;;;;23.90;38.12;102491.72;5034308;27;47608;-82
2022/03/24 09:16:23;;;;;;;;;23.25;20.75;;;;;23.88;38.14;102488.31;5028695;27;45405;-83
2022/03/24 09:18:49;;;;;;;;;19.50;19.25;;;;;23.89;38.01;102491.84;5024671;28;45439;-83
2022/03/24 09:21:16;;;;;;;;;29.75;25.00;;;;;23.92;38.17;102495.16;5026245;27;46137;-85
2022/03/24 09:23:42;;;;;;;;;21.75;21.75;;;;;23.94;38.09;102489.63;5024518;27;45640;-84
2022/03/24 09:26:08;;;;;;;;;21.25;21.25;;;;;23.96;38.54;102490.38;5035150;27;45561;-85
2022/03/24 09:28:33;;;;;;;;;21.75;20.25;;;;;23.97;38.16;102493.91;5027426;27;45601;-83
2022/03/24 09:30:58;;;;;;;;;21.50;21.50;;;;;24.01;38.22;102495.38;5029214;28;45656;-83
2022/03/24 09:33:24;;;;;;;;;24.25;24.25;;;;;24.02;38.51;102497.97;5018038;27;45518;-83
2022/03/24 09:35:50;;;;;;;;;19.25;19.25;;;;;24.04;38.19;102501.41;5027756;27;45380;-79
2022/03/24 09:38:18;;;;;;;;;23.50;20.25;;;;;24.04;38.57;102493.28;5021455;27;45527;-83
2022/03/24 09:40:45;;;;;;;;;24.50;24.25;;;;;24.08;38.41;102499.31;5011934;28;47075;-91
2022/03/24 09:43:12;;;;;;;;;20.75;18.75;;;;;24.06;38.26;102488.59;5035454;27;45592;-84
2022/03/24 09:45:39;;;;;;;;;22.00;21.00;;;;;24.15;38.17;102494.28;5017488;28;45612;-85
2022/03/24 09:48:06;;;;;;;;;20.25;19.75;;;;;24.17;38.50;102494.97;5032431;27;45499;-78
2022/03/24 09:50:34;;;;;;;;;20.75;20.25;;;;;24.08;38.35;102477.63;5027706;27;45647;-77
2022/03/24 09:53:00;;;;;;;;;23.25;18.50;;;;;24.19;38.45;102499.28;5040429;27;45506;-80
2022/03/24 09:55:26;;;;;;;;;22.33;21.33;;;;;24.21;38.35;102494.56;5017668;28;45502;-81
2022/03/24 09:57:51;;;;;;;;;21.00;18.75;;;;;24.23;38.53;102489.03;5040768;28;45543;-84
2022/03/24 10:00:17;;;;;;;;;25.50;21.00;;;;;24.26;38.26;102482.47;5039842;27;47469;-83
2022/03/24 10:02:42;;;;;;;;;22.75;21.25;;;;;24.25;38.42;102488.91;5047615;27;45768;-76
2022/03/24 10:05:10;;;;;;;;;19.00;16.50;;;;;24.29;38.15;102490.38;5037360;27;45472;-78
2022/03/24 10:07:45;;;;;;;;;19.75;19.75;;;;;24.30;38.47;102489.38;5035212;27;45415;-73
2022/03/24 10:10:25;;;;;;;;;21.75;20.50;;;;;24.32;38.71;102490.13;5033692;27;46179;-74
2022/03/24 10:12:50;;;;;;;;;20.50;19.00;;;;;24.38;38.43;102488.69;5017433;28;45754;-74
2022/03/24 10:15:16;;;;;;;;;24.00;22.50;;;;;24.38;37.61;102484.16;5030272;27;47099;-72
2022/03/24 10:17:53;;;;;;;;;23.50;22.00;;;;;24.33;36.52;102476.38;5024685;27;45432;-72
2022/03/24 10:20:19;;;;;;;;;31.25;25.00;;;;;24.27;36.43;102479.63;5022535;27;46073;-71
2022/03/24 10:22:55;;;;;;;;;30.00;24.50;;;;;24.21;36.39;102474.75;5031731;27;45444;-75
2022/03/24 10:25:27;;;;;;;;;29.00;26.25;;;;;24.15;36.32;102470.69;5038496;27;45395;-76
2022/03/24 10:28:14;;;;;;;;;23.50;21.00;;;;;24.19;36.90;102464.03;5017641;28;45469;-80
2022/03/24 10:30:53;;;;;;;;;24.75;21.25;;;;;24.13;36.96;102451.00;5019172;28;45339;-81
2022/03/24 10:33:28;;;;;;;;;25.25;23.25;;;;;24.21;36.82;102459.31;5011429;27;45536;-81
2022/03/24 10:36:13;;;;;;;;;23.25;21.50;;;;;24.25;36.96;102454.50;5026020;27;45524;-81
2022/03/24 10:39:04;;;;;;;;;15.75;14.75;;;;;24.27;36.92;102448.94;5033396;27;45481;-78
2022/03/24 10:41:35;;;;;;;;;21.00;18.00;;;;;24.31;37.03;102456.69;5035715;27;46041;-76
2022/03/24 10:44:08;;;;;;;;;25.00;25.00;;;;;24.34;36.66;102458.25;5036172;27;45596;-81
2022/03/24 10:46:36;;;;;;;;;23.50;19.75;;;;;24.32;36.97;102449.41;5039145;27;45451;-80
2022/03/24 10:49:18;;;;;;;;;27.25;21.75;;;;;24.39;36.96;102458.72;5042054;28;45535;-78
2022/03/24 10:51:46;;;;;;;;;19.75;19.75;;;;;24.37;37.11;102444.44;5014427;28;46127;-80
2022/03/24 10:54:24;;;;;;;;;17.25;17.25;;;;;24.40;37.04;102440.59;5024614;27;45538;-80
2022/03/24 10:56:52;;;;;;;;;25.00;21.50;;;;;24.47;37.00;102447.19;5029835;27;45824;-84
2022/03/24 10:59:18;;;;;;;;;25.25;22.25;;;;;24.49;37.18;102453.38;5030099;27;45402;-88
2022/03/24 11:01:45;;;;;;;;;24.00;21.75;;;;;24.50;37.31;102443.34;5033063;27;45598;-87
2022/03/24 11:04:10;;;;;;;;;23.50;22.25;;;;;24.54;37.14;102448.41;5014242;27;45445;-93
2022/03/24 11:06:35;;;;;;;;;20.75;19.00;;;;;24.56;37.23;102446.41;4997724;28;45466;-93
2022/03/24 11:09:02;;;;;;;;;20.25;18.00;;;;;24.58;36.92;102446.28;5028345;27;48099;-85
2022/03/24 11:11:29;;;;;;;;;20.00;19.50;;;;;24.63;37.27;102440.41;5027906;27;45500;-88
2022/03/24 11:14:00;;;;;;;;;23.75;20.50;;;;;24.66;37.30;102435.59;5028063;27;45427;-84
2022/03/24 11:16:30;;;;;;;;;20.00;20.00;;;;;24.65;37.29;102433.03;5028543;27;45670;-89
2022/03/24 11:18:58;;;;;;;;;23.25;20.75;;;;;24.68;37.27;102428.16;5030402;28;45431;-88
2022/03/24 11:21:39;;;;;;;;;20.00;20.00;;;;;24.79;37.22;102434.50;5025724;27;46525;-90
2022/03/24 11:24:05;;;;;;;;;23.25;19.25;;;;;24.78;37.34;102424.63;5020222;27;45499;-74
2022/03/24 11:26:31;;;;;;;;;21.75;17.75;;;;;24.78;37.12;102419.22;5008588;27;45457;-75
2022/03/24 11:28:58;;;;;;;;;21.00;20.33;;;;;24.83;37.48;102422.41;5027343;27;45799;-74
2022/03/24 11:31:24;;;;;;;;;17.00;17.00;;;;;24.84;37.28;102415.97;5007023;27;46270;-74
2022/03/24 11:33:54;;;;;;;;;20.25;20.25;;;;;24.81;36.97;102417.06;5030281;28;45513;-74
2022/03/24 11:36:21;;;;;;;;;19.00;19.00;;;;;24.85;36.92;102426.69;5018378;27;45488;-75
2022/03/24 11:38:53;;;;;;;;;21.00;18.25;;;;;24.85;37.02;102420.44;5018633;27;45435;-75
2022/03/24 11:41:45;;;;;;;;;18.00;17.00;;;;;24.85;37.11;102423.16;5017138;27;45369;-74
2022/03/24 11:44:27;;;;;;;;;20.00;19.00;;;;;24.84;37.00;102421.41;5028337;27;45496;-74
2022/03/24 11:46:55;;;;;;;;;18.00;16.00;;;;;24.84;36.59;102415.97;5026854;27;45777;-74
2022/03/24 11:49:25;;;;;;;;;19.00;17.00;;;;;24.81;37.00;102408.09;5030143;27;45467;-75
2022/03/24 11:52:11;;;;;;;;;19.00;18.33;;;;;24.87;36.71;102407.56;5029212;28;46114;-74
2022/03/24 11:54:39;;;;;;;;;16.33;16.33;;;;;24.86;36.75;102403.97;5020745;28;45332;-75
2022/03/24 11:57:22;;;;;;;;;16.00;15.67;;;;;24.87;36.65;102407.56;5018486;27;45640;-75
2022/03/24 12:00:13;;;;;;;;;16.33;16.33;;;;;24.88;36.64;102392.13;5017180;27;46433;-74
2022/03/24 12:02:45;;;;;;;;;18.00;15.00;;;;;24.88;36.72;102400.28;5025817;27;47650;-74
2022/03/24 12:05:13;;;;;;;;;28.75;26.25;;;;;24.87;35.93;102396.69;5027690;27;46879;-75
2022/03/24 12:07:38;;;;;;;;;29.25;26.00;;;;;24.86;33.96;102390.41;5026644;27;45424;-74
2022/03/24 12:10:09;;;;;;;;;23.75;23.25;;;;;24.82;33.74;102386.22;5033128;28;45427;-75
2022/03/24 12:12:36;;;;;;;;;29.00;26.75;;;;;24.81;32.14;102383.66;5025285;28;45504;-76
2022/03/24 12:15:10;;;;;;;;;30.00;24.75;;;;;24.78;33.14;102381.19;5027197;27;45428;-75
2022/03/24 12:17:35;;;;;;;;;30.50;28.25;;;;;24.76;33.05;102380.50;5025307;27;45539;-78
2022/03/24 12:20:22;;;;;;;;;26.75;25.25;;;;;24.74;33.03;102377.91;4997123;27;45658;-77
2022/03/24 12:22:48;;;;;;;;;22.75;22.50;;;;;24.65;33.00;102370.56;5028903;27;46174;-78
2022/03/24 12:25:14;;;;;;;;;26.50;23.50;;;;;24.66;33.24;102369.56;5018249;27;45449;-78
2022/03/24 12:28:07;;;;;;;;;27.50;25.50;;;;;24.63;33.22;102364.41;5017313;28;45369;-76
2022/03/24 12:30:51;;;;;;;;;31.50;26.00;;;;;24.60;33.22;102370.97;5001458;28;45700;-77
2022/03/24 12:33:28;;;;;;;;;25.75;24.25;;;;;24.57;33.08;102350.38;5017378;27;46029;-77
2022/03/24 12:35:58;;;;;;;;;22.75;22.75;;;;;24.54;33.55;102358.81;5023421;27;45531;-74
2022/03/24 12:38:30;;;;;;;;;23.50;22.75;;;;;24.52;33.11;102358.09;5025553;27;45444;-78
2022/03/24 12:41:04;;;;;;;;;27.00;22.75;;;;;24.51;33.32;102358.22;5013816;28;45402;-78
2022/03/24 12:43:46;;;;;;;;;32.75;27.00;;;;;24.47;33.53;102355.78;5018504;27;46764;-77
2022/03/24 12:46:28;;;;;;;;;25.75;24.00;;;;;24.45;33.22;102349.63;5026949;27;45844;-78
2022/03/24 12:48:56;;;;;;;;;27.75;22.75;;;;;24.43;33.49;102340.78;5028889;28;45327;-85
2022/03/24 12:51:27;;;;;;;;;24.50;22.50;;;;;24.46;33.33;102342.34;5028520;27;45763;-80
2022/03/24 12:54:05;;;;;;;;;21.50;21.50;;;;;24.51;33.85;102339.22;5028889;27;45653;-83
2022/03/24 12:56:32;;;;;;;;;22.00;21.00;;;;;24.53;34.01;102329.09;5023762;27;45400;-82
2022/03/24 12:59:05;;;;;;;;;27.50;25.75;;;;;24.61;33.94;102335.56;5014670;27;45377;-84
2022/03/24 13:01:32;;;;;;;;;23.75;21.75;;;;;24.68;34.33;102335.88;5011840;27;45558;-77
2022/03/24 13:04:02;;;;;;;;;21.75;21.75;;;;;24.70;34.29;102323.03;5015183;28;45844;-77
2022/03/24 13:06:29;;;;;;;;;20.00;20.00;;;;;24.77;34.27;102322.47;5026210;27;45686;-78
2022/03/24 13:09:14;;;;;;;;;20.67;18.67;;;;;24.88;34.44;102324.25;5031093;27;45424;-77
2022/03/24 13:11:51;;;;;;;;;20.25;19.75;;;;;24.91;34.71;102322.09;5029275;27;45476;-80
2022/03/24 13:14:19;;;;;;;;;23.50;20.50;;;;;24.96;34.89;102313.50;5028691;27;46141;-77
2022/03/24 13:16:59;;;;;;;;;19.75;18.25;;;;;25.02;35.04;102318.41;5027084;27;46508;-77
2022/03/24 13:19:25;;;;;;;;;22.50;18.75;;;;;25.04;34.90;102310.09;4997427;27;45520;-78
2022/03/24 13:21:50;;;;;;;;;19.50;18.25;;;;;25.10;35.16;102306.84;5018112;28;45390;-78
2022/03/24 13:24:23;;;;;;;;;18.25;17.50;;;;;25.16;34.95;102321.69;5023807;27;55006;-78
2022/03/24 13:26:59;;;;;;;;;21.33;19.33;;;;;25.21;34.98;102305.81;5030912;27;45472;-78
2022/03/24 13:29:46;;;;;;;;;17.67;16.67;;;;;25.21;35.01;102294.94;5036786;27;45360;-80
2022/03/24 13:32:15;;;;;;;;;20.67;18.00;;;;;25.26;35.44;102301.69;5028942;27;45418;-78
2022/03/24 13:34:47;;;;;;;;;15.67;15.00;;;;;25.31;35.31;102298.56;5038798;27;45979;-78
2022/03/24 13:37:18;;;;;;;;;16.33;16.00;;;;;25.38;35.63;102302.41;5039665;27;45449;-83
2022/03/24 13:39:48;;;;;;;;;16.00;16.00;;;;;25.39;35.41;102297.84;5018730;28;45444;-79
2022/03/24 13:42:15;;;;;;;;;18.67;18.33;;;;;25.43;35.53;102295.69;5018125;27;45457;-80
2022/03/24 13:44:43;;;;;;;;;15.67;14.00;;;;;25.44;35.63;102291.94;5022530;27;45918;-79
2022/03/24 13:47:09;;;;;;;;;18.00;17.67;;;;;25.50;35.57;102285.97;5026406;27;45547;-79
2022/03/24 13:49:34;;;;;;;;;15.33;13.67;;;;;25.52;35.70;102292.09;5020630;27;45427;-80
2022/03/24 13:52:00;;;;;;;;;17.00;17.00;;;;;25.55;35.87;102283.69;5031655;28;45516;-93
2022/03/24 13:54:25;;;;;;;;;18.33;18.33;;;;;25.58;36.00;102272.50;5043697;27;45393;-78
2022/03/24 13:56:52;;;;;;;;;16.33;16.33;;;;;25.61;35.92;102280.38;5031236;27;45374;-83
2022/03/24 13:59:25;;;;;;;;;18.00;15.67;;;;;25.60;35.86;102262.38;5024182;27;45487;-78
2022/03/24 14:01:57;;;;;;;;;15.33;15.33;;;;;25.68;36.14;102267.06;5029849;27;45367;-82
2022/03/24 14:04:23;;;;;;;;;19.33;15.67;;;;;25.71;36.19;102269.47;5015186;27;46069;-81
2022/03/24 14:07:08;;;;;;;;;13.00;13.00;;;;;25.73;36.20;102266.63;5018523;28;45379;-79
2022/03/24 14:09:34;;;;;;;;;17.67;17.67;;;;;25.75;36.39;102262.75;5024712;28;45933;-79
2022/03/24 14:12:07;;;;;;;;;15.67;14.00;;;;;25.76;36.43;102259.00;5016061;27;45849;-80
2022/03/24 14:14:33;;;;;;;;;17.00;16.67;;;;;25.80;36.24;102256.88;5024407;27;46089;-80
2022/03/24 14:16:59;;;;;;;;;18.67;15.67;;;;;25.64;36.48;102233.88;5028180;27;45561;-80
2022/03/24 14:19:28;;;;;;;;;19.00;17.33;;;;;25.84;35.72;102252.00;5027518;27;45284;-74
2022/03/24 14:21:56;;;;;;;;;23.00;21.00;;;;;25.78;33.36;102254.31;5042649;28;45420;-79
2022/03/24 14:24:45;;;;;;;;;22.00;21.67;;;;;25.67;33.13;102240.88;5036440;27;45461;-77
2022/03/24 14:27:24;;;;;;;;;26.67;21.33;;;;;25.61;33.13;102249.59;5022192;27;45385;-76
2022/03/24 14:30:11;;;;;;;;;19.67;19.33;;;;;25.52;32.99;102249.47;5029426;27;45378;-74
2022/03/24 14:32:42;;;;;;;;;19.33;17.67;;;;;25.40;32.75;102239.75;5037387;27;45496;-75
2022/03/24 14:35:14;;;;;;;;;26.00;24.25;;;;;25.36;32.86;102247.34;5034927;27;45517;-77
2022/03/24 14:37:49;;;;;;;;;25.33;20.67;;;;;25.29;33.19;102237.19;5031459;27;45684;-75
2022/03/24 14:40:32;;;;;;;;;26.50;20.50;;;;;25.23;32.74;102233.19;5027191;27;45528;-75
2022/03/24 14:42:59;;;;;;;;;25.00;19.33;;;;;25.17;32.71;102233.78;5048818;28;45510;-72
2022/03/24 14:45:26;;;;;;;;;24.50;23.00;;;;;25.12;30.44;102226.03;5021327;27;47182;-73
2022/03/24 14:47:52;;;;;;;;;26.00;24.67;;;;;25.07;30.50;102214.75;5036070;27;46538;-73
2022/03/24 14:50:18;;;;;;;;;22.25;21.00;;;;;25.07;31.27;102226.47;5028053;27;45865;-73
2022/03/24 14:52:43;;;;;;;;;21.50;20.50;;;;;25.05;31.53;102233.06;5023315;27;45383;-74
2022/03/24 14:55:10;;;;;;;;;23.25;22.00;;;;;25.01;31.39;102224.31;5031391;27;46048;-73
2022/03/24 14:57:36;;;;;;;;;19.75;19.75;;;;;24.91;31.61;102218.91;5029698;28;45654;-73
2022/03/24 15:00:02;;;;;;;;;20.33;20.00;;;;;24.93;31.83;102224.19;5022349;27;45511;-73
2022/03/24 15:02:28;;;;;;;;;22.50;20.25;;;;;24.88;31.81;102212.91;5029503;27;45869;-72
2022/03/24 15:04:53;;;;;;;;;20.50;19.00;;;;;24.89;31.83;102215.44;5028619;27;57442;-72
2022/03/24 15:07:20;;;;;;;;;23.33;20.67;;;;;24.88;31.92;102212.91;5061884;27;51785;-75
2022/03/24 15:09:45;;;;;;;;;20.00;19.67;;;;;24.80;31.86;102205.44;5028281;27;46154;-73
2022/03/24 15:12:11;;;;;;;;;25.33;22.33;;;;;24.81;32.15;102204.44;5027876;27;45493;-78
2022/03/24 15:17:21;;;;;;;;;16.33;16.33;;;;;24.82;32.75;102200.72;5017591;27;45565;-77
2022/03/24 15:19:46;;;;;;;;;20.00;20.00;;;;;24.91;32.85;102199.88;5048259;27;48087;-78
2022/03/24 15:22:12;;;;;;;;;22.00;16.00;;;;;24.92;32.91;102200.72;5030359;27;45439;-77
2022/03/24 15:24:38;;;;;;;;;19.67;16.67;;;;;24.99;33.16;102199.16;5028635;28;45624;-76
2022/03/24 15:27:04;;;;;;;;;22.33;18.33;;;;;24.98;33.44;102190.16;5041888;27;45411;-76
2022/03/24 15:29:30;;;;;;;;;17.67;17.00;;;;;25.02;33.39;102196.19;5023648;27;45473;-78
2022/03/24 15:31:56;;;;;;;;;19.33;19.33;;;;;25.06;33.88;102194.88;5020454;27;45536;-78
2022/03/24 15:34:25;;;;;;;;;21.67;18.33;;;;;25.09;33.78;102193.75;5014956;27;46236;-74
2022/03/24 15:36:53;;;;;;;;;21.33;17.33;;;;;25.15;33.35;102200.44;5044249;27;45414;-76
2022/03/24 15:39:18;;;;;;;;;15.33;14.67;;;;;25.17;33.08;102198.47;5032418;27;45536;-78
2022/03/24 15:41:44;;;;;;;;;18.33;17.33;;;;;25.17;33.58;102198.47;5033781;27;45567;-73
2022/03/24 15:44:10;;;;;;;;;22.33;20.00;;;;;25.16;32.27;102199.44;5029748;27;46047;-90
2022/03/24 15:46:36;;;;;;;;;20.00;17.33;;;;;25.12;32.54;102186.16;5022902;27;45287;-88
2022/03/24 15:49:01;;;;;;;;;20.67;20.67;;;;;25.13;32.54;102192.44;5036341;28;45372;-88
2022/03/24 15:51:27;;;;;;;;;17.67;16.67;;;;;25.17;32.66;102201.19;5018754;27;45318;-89
2022/03/24 15:53:52;;;;;;;;;17.00;17.00;;;;;25.18;32.77;102192.00;5007581;28;46127;-77
2022/03/24 15:56:18;;;;;;;;;16.67;16.67;;;;;25.18;33.10;102200.16;5037406;27;48716;-78
2022/03/24 15:58:43;;;;;;;;;16.67;16.67;;;;;25.19;33.12;102193.72;5042178;27;46949;-79
2022/03/24 16:01:10;;;;;;;;;20.00;18.00;;;;;25.17;33.21;102193.88;5041774;27;45662;-78
2022/03/24 16:03:35;;;;;;;;;22.00;19.00;;;;;25.15;33.62;102185.00;5015993;28;46158;-78
2022/03/24 16:06:00;;;;;;;;;19.67;18.00;;;;;25.19;33.51;102191.00;5022782;27;46278;-79